sensor_id;sensor_type;location;lat;lon;timestamp;pressure;altitude;pressure_sealevel;temperature;humidity
71791;BME280;59638;52.126;5.434;2022-08-19T00:01:59;101527.72;;;15.50;98.61
71791;BME280;59638;52.126;5.434;2022-08-19T00:04:32;101527.88;;;15.49;98.75
71791;BME280;59638;52.126;5.434;2022-08-19T00:06:59;101530.03;;;15.45;98.70
71791;BME280;59638;52.126;5.434;2022-08-19T00:09:27;101541.94;;;15.41;98.88
71791;BME280;59638;52.126;5.434;2022-08-19T00:11:54;101540.81;;;15.44;98.80
71791;BME280;59638;52.126;5.434;2022-08-19T00:14:23;101547.78;;;15.45;98.83
71791;BME280;59638;52.126;5.434;2022-08-19T00:16:51;101539.69;;;15.46;98.91
71791;BME280;59638;52.126;5.434;2022-08-19T00:19:20;101543.34;;;15.45;98.97
71791;BME280;59638;52.126;5.434;2022-08-19T00:21:47;101541.94;;;15.41;98.82
71791;BME280;59638;52.126;5.434;2022-08-19T00:24:14;101540.56;;;15.37;98.86
71791;BME280;59638;52.126;5.434;2022-08-19T00:26:42;101542.25;;;15.38;98.92
71791;BME280;59638;52.126;5.434;2022-08-19T00:29:11;101536.91;;;15.38;99.00
71791;BME280;59638;52.126;5.434;2022-08-19T00:31:39;101535.97;;;15.39;98.99
71791;BME280;59638;52.126;5.434;2022-08-19T00:34:05;101540.56;;;15.37;99.18
71791;BME280;59638;52.126;5.434;2022-08-19T00:36:31;101540.72;;;15.36;99.14
71791;BME280;59638;52.126;5.434;2022-08-19T00:38:59;101541.19;;;15.31;99.15
71791;BME280;59638;52.126;5.434;2022-08-19T00:41:26;101541.66;;;15.27;99.08
71791;BME280;59638;52.126;5.434;2022-08-19T00:46:27;101530.47;;;15.23;99.01
71791;BME280;59638;52.126;5.434;2022-08-19T00:48:55;101533.13;;;15.23;99.06
71791;BME280;59638;52.126;5.434;2022-08-19T00:51:25;101531.47;;;15.22;98.98
71791;BME280;59638;52.126;5.434;2022-08-19T00:53:55;101534.56;;;15.17;99.06
71791;BME280;59638;52.126;5.434;2022-08-19T00:56:23;101539.34;;;15.14;99.08
71791;BME280;59638;52.126;5.434;2022-08-19T00:58:50;101536.00;;;15.12;99.23
71791;BME280;59638;52.126;5.434;2022-08-19T01:01:16;101531.97;;;15.08;99.46
71791;BME280;59638;52.126;5.434;2022-08-19T01:03:43;101531.31;;;15.06;99.30
71791;BME280;59638;52.126;5.434;2022-08-19T01:06:25;101540.25;;;15.05;99.42
71791;BME280;59638;52.126;5.434;2022-08-19T01:08:52;101535.75;;;15.05;99.46
71791;BME280;59638;52.126;5.434;2022-08-19T01:11:19;101536.91;;;15.03;99.52
71791;BME280;59638;52.126;5.434;2022-08-19T01:13:46;101534.41;;;15.01;99.37
71791;BME280;59638;52.126;5.434;2022-08-19T01:16:17;101540.00;;;14.98;99.38
71791;BME280;59638;52.126;5.434;2022-08-19T01:18:43;101537.81;;;14.93;99.48
71791;BME280;59638;52.126;5.434;2022-08-19T01:21:27;101531.94;;;14.90;99.58
71791;BME280;59638;52.126;5.434;2022-08-19T01:23:57;101521.06;;;14.83;99.53
71791;BME280;59638;52.126;5.434;2022-08-19T01:26:25;101524.72;;;14.82;99.65
71791;BME280;59638;52.126;5.434;2022-08-19T01:28:55;101535.66;;;14.79;99.68
71791;BME280;59638;52.126;5.434;2022-08-19T01:31:28;101533.97;;;14.78;99.62
71791;BME280;59638;52.126;5.434;2022-08-19T01:34:00;101536.63;;;14.78;99.63
71791;BME280;59638;52.126;5.434;2022-08-19T01:36:28;101535.41;;;14.73;99.70
71791;BME280;59638;52.126;5.434;2022-08-19T01:38:56;101541.00;;;14.69;99.84
71791;BME280;59638;52.126;5.434;2022-08-19T01:41:22;101538.78;;;14.65;99.83
71791;BME280;59638;52.126;5.434;2022-08-19T01:43:51;101540.06;;;14.61;99.76
71791;BME280;59638;52.126;5.434;2022-08-19T01:46:38;101535.50;;;14.53;99.77
71791;BME280;59638;52.126;5.434;2022-08-19T01:49:06;101534.41;;;14.46;99.85
71791;BME280;59638;52.126;5.434;2022-08-19T01:51:33;101532.16;;;14.41;99.71
71791;BME280;59638;52.126;5.434;2022-08-19T01:54:09;101530.47;;;14.40;99.76
71791;BME280;59638;52.126;5.434;2022-08-19T01:56:36;101535.78;;;14.40;99.88
71791;BME280;59638;52.126;5.434;2022-08-19T01:59:07;101541.94;;;14.41;100.00
71791;BME280;59638;52.126;5.434;2022-08-19T02:01:35;101541.38;;;14.37;99.79
71791;BME280;59638;52.126;5.434;2022-08-19T02:04:01;101545.34;;;14.33;99.84
71791;BME280;59638;52.126;5.434;2022-08-19T02:06:29;101543.25;;;14.27;99.88
71791;BME280;59638;52.126;5.434;2022-08-19T02:08:56;101542.25;;;14.28;100.00
71791;BME280;59638;52.126;5.434;2022-08-19T02:11:26;101543.94;;;14.29;100.00
71791;BME280;59638;52.126;5.434;2022-08-19T02:13:54;101536.97;;;14.28;99.99
71791;BME280;59638;52.126;5.434;2022-08-19T02:16:21;101536.84;;;14.20;100.00
71791;BME280;59638;52.126;5.434;2022-08-19T02:18:47;101534.75;;;14.14;100.00
71791;BME280;59638;52.126;5.434;2022-08-19T02:21:16;101538.41;;;14.13;100.00
71791;BME280;59638;52.126;5.434;2022-08-19T02:23:44;101536.72;;;14.12;100.00
71791;BME280;59638;52.126;5.434;2022-08-19T02:26:11;101530.44;;;14.13;100.00
71791;BME280;59638;52.126;5.434;2022-08-19T02:28:39;101538.41;;;14.13;100.00
71791;BME280;59638;52.126;5.434;2022-08-19T02:31:14;101546.78;;;14.08;99.97
71791;BME280;59638;52.126;5.434;2022-08-19T02:33:41;101550.84;;;14.03;100.00
71791;BME280;59638;52.126;5.434;2022-08-19T02:36:09;101550.44;;;13.98;100.00
71791;BME280;59638;52.126;5.434;2022-08-19T02:38:36;101549.44;;;13.99;100.00
71791;BME280;59638;52.126;5.434;2022-08-19T02:41:11;101557.28;;;14.00;100.00
71791;BME280;59638;52.126;5.434;2022-08-19T02:43:37;101556.31;;;14.01;100.00
71791;BME280;59638;52.126;5.434;2022-08-19T02:46:18;101563.00;;;14.05;100.00
71791;BME280;59638;52.126;5.434;2022-08-19T02:48:51;101557.69;;;14.05;100.00
71791;BME280;59638;52.126;5.434;2022-08-19T02:51:30;101558.81;;;14.03;100.00
71791;BME280;59638;52.126;5.434;2022-08-19T02:53:57;101561.31;;;14.04;100.00
71791;BME280;59638;52.126;5.434;2022-08-19T02:56:24;101555.16;;;14.04;100.00
71791;BME280;59638;52.126;5.434;2022-08-19T02:58:53;101556.84;;;14.05;100.00
71791;BME280;59638;52.126;5.434;2022-08-19T03:01:26;101567.75;;;14.02;100.00
71791;BME280;59638;52.126;5.434;2022-08-19T03:03:54;101568.59;;;14.02;100.00
71791;BME280;59638;52.126;5.434;2022-08-19T03:06:22;101567.75;;;14.02;100.00
71791;BME280;59638;52.126;5.434;2022-08-19T03:08:50;101562.44;;;14.02;100.00
71791;BME280;59638;52.126;5.434;2022-08-19T03:11:21;101559.66;;;14.03;100.00
71791;BME280;59638;52.126;5.434;2022-08-19T03:13:48;101557.84;;;14.04;100.00
71791;BME280;59638;52.126;5.434;2022-08-19T03:16:18;101553.19;;;14.06;100.00
71791;BME280;59638;52.126;5.434;2022-08-19T03:18:45;101549.03;;;14.03;100.00
71791;BME280;59638;52.126;5.434;2022-08-19T03:21:29;101545.84;;;14.00;100.00
71791;BME280;59638;52.126;5.434;2022-08-19T03:23:58;101544.13;;;13.99;100.00
71791;BME280;59638;52.126;5.434;2022-08-19T03:26:26;101544.97;;;14.09;100.00
71791;BME280;59638;52.126;5.434;2022-08-19T03:28:52;101546.50;;;14.11;100.00
71791;BME280;59638;52.126;5.434;2022-08-19T03:31:25;101543.97;;;14.10;100.00
71791;BME280;59638;52.126;5.434;2022-08-19T03:34:20;101536.84;;;14.10;100.00
71791;BME280;59638;52.126;5.434;2022-08-19T03:36:47;101541.75;;;14.15;100.00
71791;BME280;59638;52.126;5.434;2022-08-19T03:39:14;101539.50;;;14.20;100.00
71791;BME280;59638;52.126;5.434;2022-08-19T03:41:43;101546.22;;;14.05;100.00
71791;BME280;59638;52.126;5.434;2022-08-19T03:44:15;101548.22;;;13.83;100.00
71791;BME280;59638;52.126;5.434;2022-08-19T03:46:48;101556.47;;;13.71;100.00
71791;BME280;59638;52.126;5.434;2022-08-19T03:49:15;101549.66;;;13.68;100.00
71791;BME280;59638;52.126;5.434;2022-08-19T03:51:44;101547.09;;;13.67;100.00
71791;BME280;59638;52.126;5.434;2022-08-19T03:54:13;101543.75;;;13.65;100.00
71791;BME280;59638;52.126;5.434;2022-08-19T03:56:41;101537.63;;;13.64;100.00
71791;BME280;59638;52.126;5.434;2022-08-19T03:59:12;101543.91;;;13.63;100.00
71791;BME280;59638;52.126;5.434;2022-08-19T04:01:39;101541.66;;;13.58;100.00
71791;BME280;59638;52.126;5.434;2022-08-19T04:04:06;101547.41;;;13.54;100.00
71791;BME280;59638;52.126;5.434;2022-08-19T04:06:36;101546.84;;;13.50;100.00
71791;BME280;59638;52.126;5.434;2022-08-19T04:09:09;101546.69;;;13.52;100.00
71791;BME280;59638;52.126;5.434;2022-08-19T04:11:51;101536.50;;;13.57;100.00
71791;BME280;59638;52.126;5.434;2022-08-19T04:14:22;101528.97;;;13.62;100.00
71791;BME280;59638;52.126;5.434;2022-08-19T04:16:50;101519.06;;;13.64;100.00
71791;BME280;59638;52.126;5.434;2022-08-19T04:19:19;101516.66;;;13.71;100.00
71791;BME280;59638;52.126;5.434;2022-08-19T04:21:48;101536.78;;;13.73;100.00
71791;BME280;59638;52.126;5.434;2022-08-19T04:24:16;101533.44;;;13.71;100.00
71791;BME280;59638;52.126;5.434;2022-08-19T04:26:43;101533.44;;;13.71;100.00
71791;BME280;59638;52.126;5.434;2022-08-19T04:29:16;101530.94;;;13.70;100.00
71791;BME280;59638;52.126;5.434;2022-08-19T04:31:44;101530.09;;;13.69;100.00
71791;BME280;59638;52.126;5.434;2022-08-19T04:34:13;101523.81;;;13.70;100.00
71791;BME280;59638;52.126;5.434;2022-08-19T04:36:41;101527.31;;;13.61;100.00
71791;BME280;59638;52.126;5.434;2022-08-19T04:39:11;101530.63;;;13.53;100.00
71791;BME280;59638;52.126;5.434;2022-08-19T04:41:38;101536.38;;;13.49;100.00
71791;BME280;59638;52.126;5.434;2022-08-19T04:44:23;101532.63;;;13.42;100.00
71791;BME280;59638;52.126;5.434;2022-08-19T04:46:50;101531.63;;;13.43;100.00
71791;BME280;59638;52.126;5.434;2022-08-19T04:49:19;101534.97;;;13.45;100.00
71791;BME280;59638;52.126;5.434;2022-08-19T04:51:48;101526.47;;;13.51;100.00
71791;BME280;59638;52.126;5.434;2022-08-19T04:54:17;101521.59;;;13.56;100.00
71791;BME280;59638;52.126;5.434;2022-08-19T04:57:03;101525.34;;;13.63;100.00
71791;BME280;59638;52.126;5.434;2022-08-19T04:59:32;101519.75;;;13.66;100.00
71791;BME280;59638;52.126;5.434;2022-08-19T05:01:59;101529.25;;;13.69;100.00
71791;BME280;59638;52.126;5.434;2022-08-19T05:04:26;101523.81;;;13.70;100.00
71791;BME280;59638;52.126;5.434;2022-08-19T05:06:52;101539.03;;;13.68;100.00
71791;BME280;59638;52.126;5.434;2022-08-19T05:09:27;101530.22;;;13.58;100.00
71791;BME280;59638;52.126;5.434;2022-08-19T05:12:14;101536.22;;;13.60;100.00
71791;BME280;59638;52.126;5.434;2022-08-19T05:14:41;101540.97;;;13.66;100.00
71791;BME280;59638;52.126;5.434;2022-08-19T05:17:07;101547.13;;;13.76;100.00
71791;BME280;59638;52.126;5.434;2022-08-19T05:19:53;101544.31;;;13.87;100.00
71791;BME280;59638;52.126;5.434;2022-08-19T05:22:38;101549.06;;;13.94;100.00
71791;BME280;59638;52.126;5.434;2022-08-19T05:25:08;101547.50;;;14.01;100.00
71791;BME280;59638;52.126;5.434;2022-08-19T05:27:39;101547.91;;;14.06;100.00
71791;BME280;59638;52.126;5.434;2022-08-19T05:30:06;101540.19;;;14.12;100.00
71791;BME280;59638;52.126;5.434;2022-08-19T05:32:32;101540.06;;;14.14;100.00
71791;BME280;59638;52.126;5.434;2022-08-19T05:34:59;101548.16;;;14.22;100.00
71791;BME280;59638;52.126;5.434;2022-08-19T05:37:25;101551.06;;;14.29;100.00
71791;BME280;59638;52.126;5.434;2022-08-19T05:39:54;101553.81;;;14.37;100.00
71791;BME280;59638;52.126;5.434;2022-08-19T05:42:21;101552.25;;;14.44;100.00
71791;BME280;59638;52.126;5.434;2022-08-19T05:44:50;101550.59;;;14.53;100.00
71791;BME280;59638;52.126;5.434;2022-08-19T05:47:16;101557.00;;;14.60;100.00
71791;BME280;59638;52.126;5.434;2022-08-19T05:49:46;101561.13;;;14.72;100.00
71791;BME280;59638;52.126;5.434;2022-08-19T05:52:14;101557.69;;;14.89;100.00
71791;BME280;59638;52.126;5.434;2022-08-19T05:54:50;101551.88;;;15.04;100.00
71791;BME280;59638;52.126;5.434;2022-08-19T05:57:18;101547.25;;;15.23;100.00
71791;BME280;59638;52.126;5.434;2022-08-19T05:59:45;101545.91;;;15.37;100.00
71791;BME280;59638;52.126;5.434;2022-08-19T06:02:17;101541.41;;;15.56;100.00
71791;BME280;59638;52.126;5.434;2022-08-19T06:04:43;101544.94;;;15.74;100.00
71791;BME280;59638;52.126;5.434;2022-08-19T06:07:09;101545.31;;;15.79;99.57
71791;BME280;59638;52.126;5.434;2022-08-19T06:09:38;101554.78;;;15.99;99.30
71791;BME280;59638;52.126;5.434;2022-08-19T06:12:05;101548.88;;;16.14;98.55
71791;BME280;59638;52.126;5.434;2022-08-19T06:14:34;101544.16;;;16.34;98.41
71791;BME280;59638;52.126;5.434;2022-08-19T06:17:06;101542.59;;;16.57;97.81
71791;BME280;59638;52.126;5.434;2022-08-19T06:19:33;101558.75;;;16.81;97.62
71791;BME280;59638;52.126;5.434;2022-08-19T06:22:05;101547.69;;;17.10;97.54
71791;BME280;59638;52.126;5.434;2022-08-19T06:24:32;101542.53;;;17.33;97.20
71791;BME280;59638;52.126;5.434;2022-08-19T06:26:59;101552.56;;;17.56;96.49
71791;BME280;59638;52.126;5.434;2022-08-19T06:29:27;101539.09;;;17.74;96.31
71791;BME280;59638;52.126;5.434;2022-08-19T06:31:55;101537.41;;;17.97;95.58
71791;BME280;59638;52.126;5.434;2022-08-19T06:34:22;101536.53;;;18.21;95.04
71791;BME280;59638;52.126;5.434;2022-08-19T06:36:51;101541.91;;;18.60;95.08
71791;BME280;59638;52.126;5.434;2022-08-19T06:39:24;101545.66;;;19.21;94.26
71791;BME280;59638;52.126;5.434;2022-08-19T06:41:57;101543.31;;;19.18;92.98
71791;BME280;59638;52.126;5.434;2022-08-19T06:44:29;101548.81;;;19.48;92.31
71791;BME280;59638;52.126;5.434;2022-08-19T06:46:57;101547.56;;;19.81;90.21
71791;BME280;59638;52.126;5.434;2022-08-19T06:49:24;101539.53;;;19.81;90.26
71791;BME280;59638;52.126;5.434;2022-08-19T06:51:51;101545.31;;;19.70;90.14
71791;BME280;59638;52.126;5.434;2022-08-19T06:54:18;101547.19;;;19.39;90.28
71791;BME280;59638;52.126;5.434;2022-08-19T06:56:46;101549.31;;;19.20;90.95
71791;BME280;59638;52.126;5.434;2022-08-19T06:59:20;101552.94;;;19.05;91.73
71791;BME280;59638;52.126;5.434;2022-08-19T07:01:50;101555.81;;;18.95;91.76
71791;BME280;59638;52.126;5.434;2022-08-19T07:04:20;101558.91;;;18.84;91.70
71791;BME280;59638;52.126;5.434;2022-08-19T07:06:47;101555.56;;;18.82;92.30
71791;BME280;59638;52.126;5.434;2022-08-19T07:09:20;101558.13;;;18.67;92.37
71791;BME280;59638;52.126;5.434;2022-08-19T07:11:50;101562.78;;;18.65;93.02
71791;BME280;59638;52.126;5.434;2022-08-19T07:14:20;101560.44;;;18.62;92.45
71791;BME280;59638;52.126;5.434;2022-08-19T07:16:48;101566.97;;;18.59;93.22
71791;BME280;59638;52.126;5.434;2022-08-19T07:19:17;101567.66;;;18.69;92.56
71791;BME280;59638;52.126;5.434;2022-08-19T07:21:46;101563.28;;;18.77;92.80
71791;BME280;59638;52.126;5.434;2022-08-19T07:24:14;101563.84;;;18.95;92.45
71791;BME280;59638;52.126;5.434;2022-08-19T07:26:42;101575.56;;;18.94;91.41
71791;BME280;59638;52.126;5.434;2022-08-19T07:29:11;101564.84;;;18.94;91.92
71791;BME280;59638;52.126;5.434;2022-08-19T07:31:39;101566.13;;;19.06;91.56
71791;BME280;59638;52.126;5.434;2022-08-19T07:34:10;101566.44;;;19.11;91.03
71791;BME280;59638;52.126;5.434;2022-08-19T07:36:40;101564.16;;;19.00;91.13
71791;BME280;59638;52.126;5.434;2022-08-19T07:39:11;101563.00;;;19.02;91.70
71791;BME280;59638;52.126;5.434;2022-08-19T07:41:38;101572.13;;;19.08;90.90
71791;BME280;59638;52.126;5.434;2022-08-19T07:44:06;101564.16;;;19.00;91.29
71791;BME280;59638;52.126;5.434;2022-08-19T07:46:36;101564.09;;;19.16;91.44
71791;BME280;59638;52.126;5.434;2022-08-19T07:49:05;101566.19;;;19.52;90.32
71791;BME280;59638;52.126;5.434;2022-08-19T07:51:33;101574.72;;;19.78;89.08
71791;BME280;59638;52.126;5.434;2022-08-19T07:54:03;101569.56;;;19.92;88.92
71791;BME280;59638;52.126;5.434;2022-08-19T07:56:29;101578.03;;;19.80;87.83
71791;BME280;59638;52.126;5.434;2022-08-19T07:58:55;101575.13;;;19.67;87.95
71791;BME280;59638;52.126;5.434;2022-08-19T08:01:27;101581.16;;;19.69;88.39
71791;BME280;59638;52.126;5.434;2022-08-19T08:03:55;101590.06;;;19.85;87.02
71791;BME280;59638;52.126;5.434;2022-08-19T08:06:41;101587.69;;;19.67;87.16
71791;BME280;59638;52.126;5.434;2022-08-19T08:09:31;101599.22;;;19.67;85.92
71791;BME280;59638;52.126;5.434;2022-08-19T08:12:04;101598.53;;;19.73;86.80
71791;BME280;59638;52.126;5.434;2022-08-19T08:14:54;101601.81;;;19.83;86.06
71791;BME280;59638;52.126;5.434;2022-08-19T08:17:24;101603.00;;;20.33;83.56
71791;BME280;59638;52.126;5.434;2022-08-19T08:20:12;101602.34;;;21.20;81.59
71791;BME280;59638;52.126;5.434;2022-08-19T08:22:43;101595.94;;;21.00;81.62
71791;BME280;59638;52.126;5.434;2022-08-19T08:25:28;101588.97;;;21.41;81.43
71791;BME280;59638;52.126;5.434;2022-08-19T08:27:59;101600.94;;;21.24;79.96
71791;BME280;59638;52.126;5.434;2022-08-19T08:30:27;101603.53;;;20.81;82.18
71791;BME280;59638;52.126;5.434;2022-08-19T08:32:58;101617.03;;;20.73;82.67
71791;BME280;59638;52.126;5.434;2022-08-19T08:35:25;101618.59;;;20.53;81.88
71791;BME280;59638;52.126;5.434;2022-08-19T08:37:53;101619.91;;;20.57;82.41
71791;BME280;59638;52.126;5.434;2022-08-19T08:42:53;101620.97;;;21.58;78.87
71791;BME280;59638;52.126;5.434;2022-08-19T08:45:23;101621.91;;;22.77;74.75
71791;BME280;59638;52.126;5.434;2022-08-19T08:47:51;101622.25;;;22.95;73.84
71791;BME280;59638;52.126;5.434;2022-08-19T08:50:29;101616.38;;;22.50;74.62
71791;BME280;59638;52.126;5.434;2022-08-19T08:53:03;101613.69;;;22.50;75.50
71791;BME280;59638;52.126;5.434;2022-08-19T08:55:32;101618.94;;;22.31;76.24
71791;BME280;59638;52.126;5.434;2022-08-19T08:58:09;101616.06;;;22.32;74.85
71791;BME280;59638;52.126;5.434;2022-08-19T09:00:43;101619.53;;;22.26;74.76
71791;BME280;59638;52.126;5.434;2022-08-19T09:03:18;101615.47;;;22.37;75.59
71791;BME280;59638;52.126;5.434;2022-08-19T09:08:32;101616.47;;;22.64;73.05
71791;BME280;59638;52.126;5.434;2022-08-19T09:10:59;101613.47;;;22.45;72.86
71791;BME280;59638;52.126;5.434;2022-08-19T09:16:18;101603.69;;;24.92;65.74
71791;BME280;59638;52.126;5.434;2022-08-19T09:18:57;101610.28;;;25.48;63.68
71791;BME280;59638;52.126;5.434;2022-08-19T09:21:25;101615.50;;;25.81;64.43
71791;BME280;59638;52.126;5.434;2022-08-19T09:23:59;101608.81;;;27.25;59.43
71791;BME280;59638;52.126;5.434;2022-08-19T09:26:28;101616.22;;;28.25;57.49
71791;BME280;59638;52.126;5.434;2022-08-19T09:29:13;101617.41;;;28.29;55.64
71791;BME280;59638;52.126;5.434;2022-08-19T09:31:40;101611.22;;;27.75;55.64
71791;BME280;59638;52.126;5.434;2022-08-19T09:34:07;101611.31;;;26.72;58.24
71791;BME280;59638;52.126;5.434;2022-08-19T09:36:46;101609.84;;;27.54;56.25
71791;BME280;59638;52.126;5.434;2022-08-19T09:39:13;101616.31;;;26.32;58.10
71791;BME280;59638;52.126;5.434;2022-08-19T09:41:41;101620.50;;;24.94;62.84
71791;BME280;59638;52.126;5.434;2022-08-19T09:44:12;101621.84;;;24.65;62.92
71791;BME280;59638;52.126;5.434;2022-08-19T09:46:39;101619.19;;;25.87;60.75
71791;BME280;59638;52.126;5.434;2022-08-19T09:49:05;101619.41;;;25.54;61.71
71791;BME280;59638;52.126;5.434;2022-08-19T09:51:33;101626.28;;;25.11;63.88
71791;BME280;59638;52.126;5.434;2022-08-19T09:54:02;101619.88;;;24.99;63.76
71791;BME280;59638;52.126;5.434;2022-08-19T09:56:31;101619.69;;;24.94;64.86
71791;BME280;59638;52.126;5.434;2022-08-19T09:59:00;101620.97;;;24.85;63.80
71791;BME280;59638;52.126;5.434;2022-08-19T10:01:30;101625.41;;;24.59;64.50
71791;BME280;59638;52.126;5.434;2022-08-19T10:03:59;101625.22;;;24.34;63.98
71791;BME280;59638;52.126;5.434;2022-08-19T10:06:32;101613.00;;;25.80;61.37
71791;BME280;59638;52.126;5.434;2022-08-19T10:09:11;101618.97;;;26.93;56.15
71791;BME280;59638;52.126;5.434;2022-08-19T10:11:44;101615.72;;;27.51;53.59
71791;BME280;59638;52.126;5.434;2022-08-19T10:14:20;101605.53;;;28.82;52.38
71791;BME280;59638;52.126;5.434;2022-08-19T10:16:49;101610.22;;;28.98;50.74
71791;BME280;59638;52.126;5.434;2022-08-19T10:19:16;101613.84;;;27.94;52.54
71791;BME280;59638;52.126;5.434;2022-08-19T10:21:52;101616.84;;;27.62;54.82
71791;BME280;59638;52.126;5.434;2022-08-19T10:24:18;101616.06;;;26.95;54.76
71791;BME280;59638;52.126;5.434;2022-08-19T10:26:46;101609.78;;;25.96;57.43
71791;BME280;59638;52.126;5.434;2022-08-19T10:29:22;101608.06;;;27.90;51.99
71791;BME280;59638;52.126;5.434;2022-08-19T10:31:59;101614.47;;;27.54;52.72
71791;BME280;59638;52.126;5.434;2022-08-19T10:34:29;101614.81;;;26.36;57.74
71791;BME280;59638;52.126;5.434;2022-08-19T10:36:56;101615.56;;;26.24;58.35
71791;BME280;59638;52.126;5.434;2022-08-19T10:39:28;101610.66;;;26.15;57.26
71791;BME280;59638;52.126;5.434;2022-08-19T10:41:57;101614.47;;;25.44;60.45
71791;BME280;59638;52.126;5.434;2022-08-19T10:44:25;101607.28;;;25.63;58.71
71791;BME280;59638;52.126;5.434;2022-08-19T10:46:58;101603.97;;;26.17;58.83
71791;BME280;59638;52.126;5.434;2022-08-19T10:49:25;101592.25;;;28.57;52.94
71791;BME280;59638;52.126;5.434;2022-08-19T10:51:53;101588.50;;;29.56;49.83
71791;BME280;59638;52.126;5.434;2022-08-19T10:54:46;101592.06;;;30.45;47.54
71791;BME280;59638;52.126;5.434;2022-08-19T10:57:34;101592.78;;;31.01;47.72
71791;BME280;59638;52.126;5.434;2022-08-19T11:00:21;101593.41;;;31.62;46.88
71791;BME280;59638;52.126;5.434;2022-08-19T11:02:50;101586.91;;;32.01;43.20
71791;BME280;59638;52.126;5.434;2022-08-19T11:05:16;101584.38;;;29.87;48.06
71791;BME280;59638;52.126;5.434;2022-08-19T11:07:44;101592.81;;;29.11;49.13
71791;BME280;59638;52.126;5.434;2022-08-19T11:10:14;101587.09;;;28.96;51.58
71791;BME280;59638;52.126;5.434;2022-08-19T11:12:46;101581.19;;;29.44;49.74
71791;BME280;59638;52.126;5.434;2022-08-19T11:15:13;101580.25;;;29.84;49.43
71791;BME280;59638;52.126;5.434;2022-08-19T11:17:40;101589.31;;;30.23;48.67
71791;BME280;59638;52.126;5.434;2022-08-19T11:20:11;101582.00;;;29.45;48.39
71791;BME280;59638;52.126;5.434;2022-08-19T11:22:39;101578.19;;;28.60;51.30
71791;BME280;59638;52.126;5.434;2022-08-19T11:25:09;101590.69;;;27.37;55.72
71791;BME280;59638;52.126;5.434;2022-08-19T11:27:40;101586.63;;;26.98;57.21
71791;BME280;59638;52.126;5.434;2022-08-19T11:30:12;101591.06;;;26.93;58.11
71791;BME280;59638;52.126;5.434;2022-08-19T11:32:40;101574.13;;;28.34;55.40
71791;BME280;59638;52.126;5.434;2022-08-19T11:35:14;101566.66;;;30.83;48.32
71791;BME280;59638;52.126;5.434;2022-08-19T11:37:40;101565.50;;;31.01;47.38
71791;BME280;59638;52.126;5.434;2022-08-19T11:40:07;101568.13;;;30.47;47.46
71791;BME280;59638;52.126;5.434;2022-08-19T11:42:34;101561.63;;;29.93;49.87
71791;BME280;59638;52.126;5.434;2022-08-19T11:45:20;101557.84;;;31.52;45.62
71791;BME280;59638;52.126;5.434;2022-08-19T11:47:47;101558.34;;;31.44;45.92
71791;BME280;59638;52.126;5.434;2022-08-19T11:50:15;101562.88;;;30.24;50.11
71791;BME280;59638;52.126;5.434;2022-08-19T11:52:41;101564.41;;;29.81;48.11
71791;BME280;59638;52.126;5.434;2022-08-19T11:55:09;101569.81;;;27.68;53.38
71791;BME280;59638;52.126;5.434;2022-08-19T11:57:35;101571.81;;;27.01;57.70
71791;BME280;59638;52.126;5.434;2022-08-19T12:00:03;101564.66;;;28.77;52.99
71791;BME280;59638;52.126;5.434;2022-08-19T12:02:30;101556.91;;;29.09;51.85
71791;BME280;59638;52.126;5.434;2022-08-19T12:04:57;101564.19;;;29.37;50.70
71791;BME280;59638;52.126;5.434;2022-08-19T12:07:23;101568.41;;;28.12;53.86
71791;BME280;59638;52.126;5.434;2022-08-19T12:09:51;101570.19;;;28.54;53.16
71791;BME280;59638;52.126;5.434;2022-08-19T12:12:17;101574.19;;;27.69;54.78
71791;BME280;59638;52.126;5.434;2022-08-19T12:14:44;101575.03;;;27.09;57.61
71791;BME280;59638;52.126;5.434;2022-08-19T12:17:11;101583.75;;;26.93;57.34
71791;BME280;59638;52.126;5.434;2022-08-19T12:19:39;101571.91;;;26.58;59.43
71791;BME280;59638;52.126;5.434;2022-08-19T12:22:06;101577.75;;;25.93;61.32
71791;BME280;59638;52.126;5.434;2022-08-19T12:24:33;101573.16;;;25.37;63.17
71791;BME280;59638;52.126;5.434;2022-08-19T12:27:01;101581.47;;;24.90;64.30
71791;BME280;59638;52.126;5.434;2022-08-19T12:29:29;101577.84;;;24.58;65.55
71791;BME280;59638;52.126;5.434;2022-08-19T12:31:57;101574.16;;;24.39;66.44
71791;BME280;59638;52.126;5.434;2022-08-19T12:34:30;101567.09;;;24.32;67.12
71791;BME280;59638;52.126;5.434;2022-08-19T12:36:58;101571.69;;;24.18;66.88
71791;BME280;59638;52.126;5.434;2022-08-19T12:39:27;101579.59;;;23.93;67.33
71791;BME280;59638;52.126;5.434;2022-08-19T12:41:53;101578.75;;;23.73;67.86
71791;BME280;59638;52.126;5.434;2022-08-19T12:44:21;101580.16;;;23.55;68.95
71791;BME280;59638;52.126;5.434;2022-08-19T12:46:55;101573.69;;;23.43;70.55
71791;BME280;59638;52.126;5.434;2022-08-19T12:49:21;101578.91;;;23.45;70.95
71791;BME280;59638;52.126;5.434;2022-08-19T12:52:08;101586.22;;;23.64;70.01
71791;BME280;59638;52.126;5.434;2022-08-19T12:54:35;101568.38;;;23.90;70.20
71791;BME280;59638;52.126;5.434;2022-08-19T12:57:07;101560.25;;;24.94;67.95
71791;BME280;59638;52.126;5.434;2022-08-19T12:59:35;101559.53;;;25.18;67.21
71791;BME280;59638;52.126;5.434;2022-08-19T13:02:06;101560.75;;;24.78;67.28
71791;BME280;59638;52.126;5.434;2022-08-19T13:04:34;101554.66;;;24.31;69.15
71791;BME280;59638;52.126;5.434;2022-08-19T13:07:07;101562.16;;;24.02;70.74
71791;BME280;59638;52.126;5.434;2022-08-19T13:09:35;101559.88;;;23.86;69.99
71791;BME280;59638;52.126;5.434;2022-08-19T13:12:02;101567.75;;;23.68;71.54
71791;BME280;59638;52.126;5.434;2022-08-19T13:14:34;101563.97;;;23.49;73.02